createdAt,value
2023-04-09T00:00:29.902Z,16.20
2023-04-09T00:01:12.089Z,19.75
2023-04-09T00:02:57.839Z,18.20
2023-04-09T00:03:40.459Z,19.73
2023-04-09T00:05:25.740Z,19.05
2023-04-09T00:06:07.951Z,19.92
2023-04-09T00:07:53.539Z,18.20
2023-04-09T00:08:35.624Z,19.50
2023-04-09T00:10:21.331Z,16.25
2023-04-09T00:11:04.230Z,19.55
2023-04-09T00:12:49.002Z,18.20
2023-04-09T00:13:39.100Z,20.35
2023-04-09T00:15:27.908Z,19.00
2023-04-09T00:16:07.914Z,19.98
2023-04-09T00:17:58.979Z,18.48
2023-04-09T00:18:35.331Z,19.77
2023-04-09T00:20:26.712Z,18.98
2023-04-09T00:21:02.468Z,20.38
2023-04-09T00:22:55.615Z,20.13
2023-04-09T00:23:29.781Z,20.20
2023-04-09T00:25:25.384Z,18.98
2023-04-09T00:25:56.868Z,19.67
2023-04-09T00:27:53.046Z,21.40
2023-04-09T00:28:25.517Z,19.52
2023-04-09T00:30:20.806Z,19.15
2023-04-09T00:30:52.706Z,20.20
2023-04-09T00:32:49.047Z,19.52
2023-04-09T00:33:20.026Z,20.27
2023-04-09T00:35:17.582Z,19.10
2023-04-09T00:35:47.112Z,20.73
2023-04-09T00:37:45.472Z,19.35
2023-04-09T00:38:14.372Z,20.95
2023-04-09T00:40:13.246Z,17.55
2023-04-09T00:40:41.587Z,21.92
2023-04-09T00:42:41.709Z,18.67
2023-04-09T00:43:09.183Z,21.30
2023-04-09T00:45:09.833Z,18.70
2023-04-09T00:45:36.613Z,21.27
2023-04-09T00:47:37.641Z,17.85
2023-04-09T00:48:04.044Z,21.65
2023-04-09T00:50:05.952Z,18.55
2023-04-09T00:50:31.281Z,22.65
2023-04-09T00:52:34.046Z,19.48
2023-04-09T00:52:58.449Z,22.33
2023-04-09T00:55:03.829Z,17.75
2023-04-09T00:55:25.787Z,23.00
2023-04-09T00:57:31.588Z,18.95
2023-04-09T00:57:52.966Z,22.42
2023-04-09T00:59:59.587Z,18.40
2023-04-09T01:00:20.638Z,24.02
2023-04-09T01:02:27.708Z,17.98
2023-04-09T01:02:48.721Z,23.23
2023-04-09T01:04:55.519Z,20.40
2023-04-09T01:05:16.228Z,22.70
2023-04-09T01:08:01.996Z,17.85
2023-04-09T01:08:05.751Z,24.17
2023-04-09T01:10:37.048Z,24.08
2023-04-09T01:10:47.681Z,18.10
2023-04-09T01:13:11.888Z,23.25
2023-04-09T01:13:48.016Z,18.23
2023-04-09T01:15:46.727Z,23.85
2023-04-09T01:16:17.436Z,18.35
2023-04-09T01:18:18.333Z,24.33
2023-04-09T01:18:51.608Z,19.23
2023-04-09T01:20:56.832Z,24.48
2023-04-09T01:21:22.786Z,19.75
2023-04-09T01:23:32.330Z,23.88
2023-04-09T01:24:18.447Z,19.17
2023-04-09T01:26:11.998Z,24.90
2023-04-09T01:27:06.177Z,20.63
2023-04-09T01:28:49.024Z,24.65
2023-04-09T01:29:57.997Z,19.45
2023-04-09T01:31:18.795Z,24.50
2023-04-09T01:32:26.488Z,20.52
2023-04-09T01:33:46.729Z,26.63
2023-04-09T01:34:54.788Z,19.08
2023-04-09T01:36:15.440Z,23.77
2023-04-09T01:37:23.803Z,19.92
2023-04-09T01:38:44.854Z,24.73
2023-04-09T01:39:51.649Z,21.55
2023-04-09T01:41:19.352Z,23.80
2023-04-09T01:42:19.390Z,21.92
2023-04-09T01:43:48.226Z,24.47
2023-04-09T01:44:47.818Z,22.08
2023-04-09T01:46:16.644Z,24.73
2023-04-09T01:47:15.560Z,21.73
2023-04-09T01:48:44.561Z,23.95
2023-04-09T01:49:43.848Z,22.70
2023-04-09T01:51:14.166Z,23.63
2023-04-09T01:52:12.128Z,23.90
2023-04-09T01:53:42.015Z,24.15
2023-04-09T01:54:39.882Z,23.70
2023-04-09T01:56:09.860Z,24.88
2023-04-09T01:57:07.542Z,22.52
2023-04-09T01:58:37.077Z,25.45
2023-04-09T01:59:35.203Z,22.92
2023-04-09T02:01:14.273Z,24.92
2023-04-09T02:02:09.634Z,23.92
2023-04-09T02:03:49.105Z,26.40
2023-04-09T02:04:44.223Z,22.92
2023-04-09T02:06:27.076Z,25.63
2023-04-09T02:07:27.452Z,22.75
2023-04-09T02:08:55.504Z,25.92
2023-04-09T02:09:55.603Z,22.23
2023-04-09T02:11:23.940Z,24.52
2023-04-09T02:12:24.917Z,23.95
2023-04-09T02:13:53.773Z,26.23
2023-04-09T02:14:53.260Z,22.63
2023-04-09T02:16:22.056Z,26.00
2023-04-09T02:17:22.280Z,23.27
2023-04-09T02:18:54.871Z,26.77
2023-04-09T02:19:49.958Z,23.45
2023-04-09T02:21:23.496Z,27.20
2023-04-09T02:22:17.820Z,22.50
2023-04-09T02:23:50.992Z,26.08
2023-04-09T02:24:46.904Z,21.95
2023-04-09T02:26:18.773Z,27.00
2023-04-09T02:27:14.754Z,23.55
2023-04-09T02:28:46.008Z,26.23
2023-04-09T02:29:43.003Z,21.08
2023-04-09T02:31:13.383Z,26.13
2023-04-09T02:32:10.641Z,22.45
2023-04-09T02:33:40.874Z,26.80
2023-04-09T02:34:38.290Z,23.00
2023-04-09T02:36:15.365Z,26.85
2023-04-09T02:37:06.064Z,24.15
2023-04-09T02:38:42.684Z,25.63
2023-04-09T02:39:33.839Z,24.35
2023-04-09T02:41:10.398Z,26.08
2023-04-09T02:42:02.258Z,23.15
2023-04-09T02:43:37.722Z,25.75
2023-04-09T02:44:30.005Z,23.38
2023-04-09T02:46:04.962Z,26.88
2023-04-09T02:46:58.170Z,23.75
2023-04-09T02:48:32.468Z,26.60
2023-04-09T02:49:25.866Z,24.77
2023-04-09T02:50:59.550Z,25.98
2023-04-09T02:51:53.495Z,24.75
2023-04-09T02:53:27.057Z,26.55
2023-04-09T02:54:21.173Z,24.67
2023-04-09T02:55:54.346Z,26.58
2023-04-09T02:56:48.770Z,25.90
2023-04-09T02:58:21.451Z,25.90
2023-04-09T02:59:16.448Z,26.48
2023-04-09T03:00:48.586Z,25.95
2023-04-09T03:01:44.333Z,25.90
2023-04-09T03:03:16.033Z,25.13
2023-04-09T03:04:12.374Z,25.85
2023-04-09T03:05:43.357Z,26.50
2023-04-09T03:06:40.905Z,26.48
2023-04-09T03:08:10.888Z,27.13
2023-04-09T03:09:11.130Z,26.60
2023-04-09T03:10:38.024Z,25.23
2023-04-09T03:11:38.764Z,27.38
2023-04-09T03:13:05.132Z,24.48
2023-04-09T03:14:06.453Z,28.30
2023-04-09T03:15:32.254Z,25.42
2023-04-09T03:16:34.084Z,28.42
2023-04-09T03:17:59.436Z,24.50
2023-04-09T03:19:01.692Z,27.50
2023-04-09T03:20:26.699Z,22.88
2023-04-09T03:21:29.390Z,27.00
2023-04-09T03:22:53.768Z,22.58
2023-04-09T03:23:57.097Z,27.15
2023-04-09T03:25:28.909Z,20.67
2023-04-09T03:26:24.713Z,27.88
2023-04-09T03:27:56.405Z,21.58
2023-04-09T03:28:53.483Z,27.15
2023-04-09T03:30:33.349Z,19.95
2023-04-09T03:31:21.385Z,27.08
2023-04-09T03:33:03.010Z,21.10
2023-04-09T03:33:49.180Z,27.00
2023-04-09T03:35:33.748Z,19.95
2023-04-09T03:36:16.897Z,27.40
2023-04-09T03:38:01.523Z,20.52
2023-04-09T03:39:07.433Z,26.92
2023-04-09T03:40:28.771Z,20.63
2023-04-09T03:41:38.114Z,27.85
2023-04-09T03:42:55.913Z,19.42
2023-04-09T03:44:10.696Z,26.45
2023-04-09T03:45:23.158Z,18.98
2023-04-09T03:46:55.284Z,26.92
2023-04-09T03:47:52.517Z,20.35
2023-04-09T03:49:23.317Z,27.25
2023-04-09T03:50:23.642Z,20.00
2023-04-09T03:51:51.166Z,27.40
2023-04-09T03:52:54.504Z,19.65
2023-04-09T03:54:19.486Z,27.08
2023-04-09T03:55:22.661Z,19.88
2023-04-09T03:56:47.582Z,26.58
2023-04-09T03:57:50.998Z,20.75
2023-04-09T03:59:20.688Z,24.55
2023-04-09T04:00:21.083Z,18.80
2023-04-09T04:01:48.842Z,27.30
2023-04-09T04:02:52.137Z,19.75
2023-04-09T04:04:16.899Z,25.77
2023-04-09T04:05:36.134Z,19.53
2023-04-09T04:06:49.019Z,23.65
2023-04-09T04:08:07.698Z,19.45
2023-04-09T04:09:25.440Z,23.70
2023-04-09T04:10:35.040Z,20.65
2023-04-09T04:11:58.840Z,25.48
2023-04-09T04:13:02.899Z,19.88
2023-04-09T04:14:39.193Z,24.23
2023-04-09T04:15:42.887Z,19.55
2023-04-09T04:17:17.685Z,23.63
2023-04-09T04:18:12.360Z,19.85
2023-04-09T04:19:45.620Z,23.52
2023-04-09T04:20:45.854Z,19.70
2023-04-09T04:22:13.381Z,23.58
2023-04-09T04:23:15.108Z,19.42
2023-04-09T04:24:44.719Z,23.85
2023-04-09T04:26:11.852Z,19.15
2023-04-09T04:27:17.626Z,23.77
2023-04-09T04:28:40.384Z,20.13
2023-04-09T04:29:45.483Z,23.35
2023-04-09T04:31:12.181Z,20.02
2023-04-09T04:32:24.268Z,22.40
2023-04-09T04:33:42.367Z,20.88
2023-04-09T04:34:53.138Z,22.73
2023-04-09T04:36:14.738Z,20.60
2023-04-09T04:37:26.569Z,21.90
2023-04-09T04:38:46.585Z,21.40
2023-04-09T04:39:58.358Z,22.63
2023-04-09T04:41:24.493Z,20.52
2023-04-09T04:42:26.932Z,22.92
2023-04-09T04:43:58.487Z,21.30
2023-04-09T04:44:54.810Z,23.00
2023-04-09T04:46:26.402Z,19.63
2023-04-09T04:47:36.271Z,21.92
2023-04-09T04:48:53.735Z,21.13
2023-04-09T04:50:06.309Z,22.73
2023-04-09T04:51:22.677Z,20.42
2023-04-09T04:52:42.996Z,22.25
2023-04-09T04:54:04.892Z,19.92
2023-04-09T04:55:11.230Z,23.13
2023-04-09T04:56:32.157Z,21.17
2023-04-09T04:57:39.493Z,22.77
2023-04-09T04:59:04.728Z,19.98
2023-04-09T05:00:08.588Z,21.15
2023-04-09T05:01:44.396Z,20.55
2023-04-09T05:02:37.557Z,20.80
2023-04-09T05:04:13.759Z,20.70
2023-04-09T05:05:27.135Z,22.80
2023-04-09T05:06:41.189Z,21.05
2023-04-09T05:07:57.772Z,21.67
2023-04-09T05:09:13.328Z,20.08
2023-04-09T05:10:25.445Z,22.67
2023-04-09T05:11:49.330Z,20.73
2023-04-09T05:12:53.224Z,22.67
2023-04-09T05:14:21.511Z,20.50
2023-04-09T05:15:33.708Z,22.67
2023-04-09T05:16:49.588Z,20.42
2023-04-09T05:18:01.899Z,22.13
2023-04-09T05:19:19.197Z,20.08
2023-04-09T05:20:30.095Z,22.33
2023-04-09T05:21:47.563Z,21.95
2023-04-09T05:23:10.360Z,22.65
2023-04-09T05:24:20.924Z,20.42
2023-04-09T05:25:42.210Z,20.83
2023-04-09T05:26:49.543Z,20.98
2023-04-09T05:28:16.936Z,21.98
2023-04-09T05:29:17.379Z,20.25
2023-04-09T05:30:48.922Z,21.98
2023-04-09T05:31:44.550Z,20.80
2023-04-09T05:33:19.059Z,22.52
2023-04-09T05:34:21.603Z,21.38
2023-04-09T05:35:46.798Z,23.10
2023-04-09T05:36:52.999Z,20.40
2023-04-09T05:38:14.696Z,22.70
2023-04-09T05:39:23.725Z,20.52
2023-04-09T05:40:45.825Z,22.50
2023-04-09T05:41:52.569Z,20.52
2023-04-09T05:43:14.439Z,22.17
2023-04-09T05:44:28.010Z,20.27
2023-04-09T05:45:44.542Z,22.17
2023-04-09T05:47:05.839Z,20.25
2023-04-09T05:48:12.828Z,22.13
2023-04-09T05:49:40.895Z,20.50
2023-04-09T05:50:53.496Z,23.23
2023-04-09T05:52:12.420Z,18.77
2023-04-09T05:53:23.102Z,22.45
2023-04-09T05:54:39.761Z,19.90
2023-04-09T05:55:51.871Z,23.33
2023-04-09T05:57:09.183Z,19.92
2023-04-09T05:58:23.302Z,22.23
2023-04-09T05:59:39.010Z,20.15
2023-04-09T06:00:52.604Z,23.00
2023-04-09T06:02:06.561Z,19.35
2023-04-09T06:03:24.664Z,24.58
2023-04-09T06:04:34.190Z,20.02
2023-04-09T06:05:52.675Z,23.30
2023-04-09T06:07:01.532Z,19.70
2023-04-09T06:08:20.552Z,23.35
2023-04-09T06:09:28.898Z,20.08
2023-04-09T06:10:48.558Z,23.63
2023-04-09T06:11:55.998Z,20.90
2023-04-09T06:13:16.231Z,23.27
2023-04-09T06:14:23.201Z,19.48
2023-04-09T06:15:43.950Z,24.08
2023-04-09T06:16:50.531Z,19.80
2023-04-09T06:18:11.711Z,24.15
2023-04-09T06:19:18.737Z,19.92
2023-04-09T06:20:39.352Z,24.50
2023-04-09T06:21:46.118Z,20.88
2023-04-09T06:23:07.048Z,23.83
2023-04-09T06:24:13.419Z,21.35
2023-04-09T06:25:35.609Z,23.23
2023-04-09T06:26:40.569Z,21.58
2023-04-09T06:28:03.431Z,24.20
2023-04-09T06:29:07.792Z,20.20
2023-04-09T06:30:32.049Z,23.52
2023-04-09T06:31:35.048Z,19.50
2023-04-09T06:32:59.915Z,23.40
2023-04-09T06:34:02.304Z,20.38
2023-04-09T06:35:28.257Z,23.13
2023-04-09T06:36:30.448Z,20.65
2023-04-09T06:37:58.873Z,24.00
2023-04-09T06:38:59.079Z,19.65
2023-04-09T06:40:27.275Z,23.90
2023-04-09T06:41:26.664Z,21.40
2023-04-09T06:42:54.949Z,24.55
2023-04-09T06:43:54.610Z,20.73
2023-04-09T06:45:28.989Z,23.65
2023-04-09T06:46:22.228Z,21.70
2023-04-09T06:47:56.893Z,24.38
2023-04-09T06:48:49.438Z,21.10
2023-04-09T06:50:24.667Z,23.73
2023-04-09T06:51:16.689Z,20.48
2023-04-09T06:52:52.613Z,24.40
2023-04-09T06:53:43.957Z,21.20
2023-04-09T06:55:20.393Z,23.40
2023-04-09T06:56:11.309Z,20.45
2023-04-09T06:57:48.059Z,25.35
2023-04-09T06:58:38.390Z,20.48
2023-04-09T07:00:16.430Z,24.42
2023-04-09T07:01:06.055Z,21.25
2023-04-09T07:02:44.338Z,23.08
2023-04-09T07:03:33.484Z,20.63
2023-04-09T07:05:12.193Z,23.58
2023-04-09T07:06:01.217Z,19.40
2023-04-09T07:07:39.811Z,24.77
2023-04-09T07:08:28.674Z,21.38
2023-04-09T07:10:08.044Z,24.65
2023-04-09T07:10:56.249Z,20.38
2023-04-09T07:12:35.733Z,24.58
2023-04-09T07:13:23.385Z,20.25
2023-04-09T07:15:10.259Z,25.27
2023-04-09T07:15:50.670Z,20.55
2023-04-09T07:17:37.965Z,24.92
2023-04-09T07:18:17.729Z,19.98
2023-04-09T07:20:06.314Z,23.60
2023-04-09T07:20:44.961Z,19.73
2023-04-09T07:22:33.982Z,25.25
2023-04-09T07:23:12.087Z,16.10
2023-04-09T07:25:01.755Z,25.15
2023-04-09T07:25:39.366Z,15.65
2023-04-09T07:27:29.952Z,24.20
2023-04-09T07:28:06.681Z,17.92
2023-04-09T07:29:58.565Z,25.77
2023-04-09T07:30:33.778Z,20.13
2023-04-09T07:32:28.101Z,24.42
2023-04-09T07:33:01.101Z,20.15
2023-04-09T07:34:56.149Z,25.45
2023-04-09T07:35:33.841Z,20.30
2023-04-09T07:37:23.792Z,25.88
2023-04-09T07:38:01.943Z,21.52
2023-04-09T07:39:52.338Z,25.73
2023-04-09T07:40:29.174Z,20.35
2023-04-09T07:42:20.139Z,25.48
2023-04-09T07:42:58.128Z,19.60
2023-04-09T07:44:48.588Z,25.33
2023-04-09T07:45:25.788Z,19.27
2023-04-09T07:47:16.716Z,24.00
2023-04-09T07:47:53.036Z,20.33
2023-04-09T07:49:44.394Z,25.65
2023-04-09T07:50:20.437Z,20.08
2023-04-09T07:52:12.126Z,27.13
2023-04-09T07:52:47.622Z,20.38
2023-04-09T07:54:39.764Z,26.70
2023-04-09T07:55:16.269Z,19.02
2023-04-09T07:57:07.574Z,26.95
2023-04-09T07:57:45.292Z,19.35
2023-04-09T07:59:36.404Z,28.33
2023-04-09T08:00:13.005Z,18.50
2023-04-09T08:02:04.500Z,28.65
2023-04-09T08:02:40.343Z,19.35
2023-04-09T08:04:32.669Z,26.42
2023-04-09T08:05:08.421Z,17.55
2023-04-09T08:07:00.495Z,27.15
2023-04-09T08:07:35.766Z,17.63
2023-04-09T08:09:28.229Z,25.98
2023-04-09T08:10:02.981Z,17.58
2023-04-09T08:11:55.927Z,24.05
2023-04-09T08:12:30.243Z,18.25
2023-04-09T08:14:23.564Z,28.15
2023-04-09T08:14:57.327Z,17.05
2023-04-09T08:16:52.237Z,27.00
2023-04-09T08:17:25.876Z,17.25
2023-04-09T08:19:20.483Z,26.85
2023-04-09T08:19:53.024Z,17.88
2023-04-09T08:21:51.365Z,26.55
2023-04-09T08:22:20.155Z,16.52
2023-04-09T08:24:19.607Z,28.42
2023-04-09T08:24:51.956Z,16.58
2023-04-09T08:26:47.301Z,28.08
2023-04-09T08:27:19.796Z,16.45
2023-04-09T08:29:15.751Z,27.35
2023-04-09T08:29:46.864Z,15.80
2023-04-09T08:31:43.467Z,27.33
2023-04-09T08:32:14.348Z,15.00
2023-04-09T08:34:11.201Z,26.00
2023-04-09T08:34:41.778Z,12.85
2023-04-09T08:36:38.860Z,26.30
2023-04-09T08:37:09.023Z,13.50
2023-04-09T08:39:06.580Z,25.60
2023-04-09T08:39:36.759Z,12.60
2023-04-09T08:41:35.304Z,26.42
2023-04-09T08:42:06.888Z,12.95
2023-04-09T08:44:02.967Z,26.08
2023-04-09T08:44:34.035Z,13.35
2023-04-09T08:46:30.648Z,23.02
2023-04-09T08:47:01.709Z,13.13
2023-04-09T08:48:58.345Z,24.50
2023-04-09T08:49:28.813Z,13.95
2023-04-09T08:51:26.852Z,27.05
2023-04-09T08:51:56.039Z,13.05
2023-04-09T08:54:04.361Z,27.35
2023-04-09T08:54:26.604Z,13.35
2023-04-09T08:56:33.262Z,27.42
2023-04-09T08:56:54.055Z,13.90
2023-04-09T08:59:00.989Z,26.10
2023-04-09T08:59:21.240Z,12.98
2023-04-09T09:01:30.706Z,27.38
2023-04-09T09:01:54.083Z,12.75
2023-04-09T09:04:06.366Z,27.42
2023-04-09T09:04:22.472Z,12.45
2023-04-09T09:06:37.460Z,26.93
2023-04-09T09:06:49.610Z,13.27
2023-04-09T09:09:13.030Z,26.98
2023-04-09T09:09:18.814Z,13.13
2023-04-09T09:11:48.583Z,13.18
2023-04-09T09:11:50.300Z,22.93
2023-04-09T09:14:18.473Z,13.60
2023-04-09T09:14:19.666Z,25.67
2023-04-09T09:16:58.129Z,13.45
2023-04-09T09:17:08.535Z,24.10
2023-04-09T09:19:25.591Z,12.32
2023-04-09T09:19:37.240Z,24.75
2023-04-09T09:21:59.959Z,12.85
2023-04-09T09:22:08.073Z,23.85
2023-04-09T09:24:27.888Z,12.57
2023-04-09T09:24:50.414Z,15.95
2023-04-09T09:26:59.657Z,12.30
2023-04-09T09:27:40.601Z,21.02
2023-04-09T09:29:28.173Z,12.68
2023-04-09T09:30:08.843Z,25.38
2023-04-09T09:31:56.584Z,12.18
2023-04-09T09:32:36.902Z,25.10
2023-04-09T09:34:25.988Z,11.05
2023-04-09T09:35:06.205Z,24.42
2023-04-09T09:36:53.227Z,10.73
2023-04-09T09:37:34.341Z,24.55
2023-04-09T09:39:22.067Z,10.02
2023-04-09T09:40:02.176Z,25.75
2023-04-09T09:42:07.639Z,10.52
2023-04-09T09:42:29.928Z,25.42
2023-04-09T09:44:57.573Z,23.95
2023-04-09T09:47:04.696Z,9.10
2023-04-09T09:47:26.041Z,19.58
2023-04-09T09:49:32.098Z,9.30
2023-04-09T09:49:54.668Z,19.05
2023-04-09T09:52:02.795Z,9.75
2023-04-09T09:52:27.101Z,19.73
2023-04-09T09:54:38.856Z,9.95
2023-04-09T09:54:56.097Z,20.27
2023-04-09T09:57:09.225Z,10.07
2023-04-09T09:57:26.222Z,20.88
2023-04-09T09:59:52.080Z,10.15
2023-04-09T10:00:01.430Z,23.40
2023-04-09T10:02:22.850Z,10.75
2023-04-09T10:02:34.705Z,25.08
2023-04-09T10:04:52.840Z,10.13
2023-04-09T10:05:03.149Z,23.73
2023-04-09T10:07:24.122Z,10.60
2023-04-09T10:07:31.937Z,21.45
2023-04-09T10:09:53.056Z,10.52
2023-04-09T10:10:00.361Z,21.27
2023-04-09T10:12:25.475Z,10.35
2023-04-09T10:12:28.071Z,23.55
2023-04-09T10:14:53.134Z,11.32
2023-04-09T10:14:56.513Z,24.45
2023-04-09T10:17:21.016Z,11.10
2023-04-09T10:17:24.105Z,22.45
2023-04-09T10:19:59.084Z,10.15
2023-04-09T10:20:12.960Z,22.73
2023-04-09T10:22:29.443Z,10.95
2023-04-09T10:22:40.879Z,21.75
2023-04-09T10:24:58.065Z,10.68
2023-04-09T10:25:09.370Z,22.40
2023-04-09T10:27:28.377Z,10.30
2023-04-09T10:27:37.363Z,20.92
2023-04-09T10:29:55.557Z,9.98
2023-04-09T10:30:07.424Z,21.08
2023-04-09T10:32:26.506Z,10.02
2023-04-09T10:32:38.296Z,20.25
2023-04-09T10:34:59.198Z,10.50
2023-04-09T10:35:06.971Z,19.77
2023-04-09T10:37:28.061Z,10.40
2023-04-09T10:37:36.544Z,20.23
2023-04-09T10:39:56.387Z,9.60
2023-04-09T10:40:04.774Z,19.25
2023-04-09T10:42:30.163Z,9.40
2023-04-09T10:42:43.290Z,19.85
2023-04-09T10:45:11.919Z,9.30
2023-04-09T10:45:12.110Z,18.15
2023-04-09T10:47:41.467Z,9.25
2023-04-09T10:47:42.520Z,18.55
2023-04-09T10:50:26.116Z,16.70
2023-04-09T10:50:28.202Z,9.00
2023-04-09T10:52:56.566Z,16.70
2023-04-09T10:52:58.176Z,9.20
2023-04-09T10:55:37.027Z,16.88
2023-04-09T10:55:39.612Z,8.93
2023-04-09T10:58:11.273Z,9.05
2023-04-09T10:58:12.371Z,16.17
2023-04-09T11:00:42.687Z,8.60
2023-04-09T11:03:22.150Z,8.85
2023-04-09T11:03:31.806Z,15.57
2023-04-09T11:05:58.808Z,8.23
2023-04-09T11:06:09.061Z,13.55
2023-04-09T11:08:32.629Z,8.45
2023-04-09T11:08:42.685Z,11.27
2023-04-09T11:11:01.377Z,8.02
2023-04-09T11:11:11.540Z,13.18
2023-04-09T11:13:31.345Z,7.88
2023-04-09T11:13:43.132Z,12.48
2023-04-09T11:16:00.264Z,8.15
2023-04-09T11:16:12.904Z,13.18
2023-04-09T11:18:29.412Z,8.70
2023-04-09T11:18:53.516Z,13.93
2023-04-09T11:21:01.698Z,8.65
2023-04-09T11:21:21.516Z,11.73
2023-04-09T11:23:29.108Z,8.90
2023-04-09T11:23:53.228Z,12.45
2023-04-09T11:25:56.548Z,8.30
2023-04-09T11:26:36.040Z,12.80
2023-04-09T11:28:24.567Z,7.97
2023-04-09T11:29:08.975Z,11.65
2023-04-09T11:30:52.345Z,7.78
2023-04-09T11:31:37.193Z,10.68
2023-04-09T11:33:20.441Z,7.47
2023-04-09T11:34:05.112Z,10.00
2023-04-09T11:35:48.661Z,7.90
2023-04-09T11:36:35.808Z,10.70
2023-04-09T11:38:16.433Z,8.10
2023-04-09T11:39:04.103Z,10.30
2023-04-09T11:40:51.444Z,8.13
2023-04-09T11:41:36.084Z,8.60
2023-04-09T11:43:20.967Z,8.70
2023-04-09T11:44:08.064Z,10.18
2023-04-09T11:45:49.144Z,8.63
2023-04-09T11:46:36.730Z,11.35
2023-04-09T11:48:21.698Z,8.80
2023-04-09T11:49:04.501Z,11.10
2023-04-09T11:50:49.229Z,8.95
2023-04-09T11:51:32.734Z,10.75
2023-04-09T11:53:24.515Z,9.25
2023-04-09T11:54:05.365Z,9.82
2023-04-09T11:55:52.842Z,8.68
2023-04-09T11:56:33.250Z,10.30
2023-04-09T11:58:24.618Z,9.00
2023-04-09T11:59:01.201Z,10.55
2023-04-09T12:00:58.693Z,9.02
2023-04-09T12:01:35.447Z,7.57
2023-04-09T12:03:34.216Z,9.10
2023-04-09T12:04:03.798Z,8.77
2023-04-09T12:06:03.519Z,8.68
2023-04-09T12:06:31.887Z,10.50
2023-04-09T12:08:34.965Z,9.05
2023-04-09T12:09:00.182Z,10.85
2023-04-09T12:11:16.111Z,9.15
2023-04-09T12:11:31.969Z,10.00
2023-04-09T12:13:44.755Z,9.60
2023-04-09T12:14:01.318Z,9.30
2023-04-09T12:16:20.569Z,9.70
2023-04-09T12:16:43.860Z,10.43
2023-04-09T12:18:48.099Z,9.55
2023-04-09T12:19:12.780Z,9.68
2023-04-09T12:21:16.174Z,9.23
2023-04-09T12:21:48.273Z,9.75
2023-04-09T12:23:44.042Z,9.02
2023-04-09T12:24:20.287Z,8.32
2023-04-09T12:26:11.216Z,9.05
2023-04-09T12:26:48.461Z,8.63
2023-04-09T12:28:38.369Z,9.70
2023-04-09T12:29:17.696Z,7.80
2023-04-09T12:31:09.999Z,9.75
2023-04-09T12:31:46.122Z,9.10
2023-04-09T12:33:38.928Z,9.38
2023-04-09T12:34:14.172Z,10.77
2023-04-09T12:36:06.391Z,8.93
2023-04-09T12:36:42.149Z,9.18
2023-04-09T12:38:33.643Z,10.25
2023-04-09T12:39:10.516Z,8.25
2023-04-09T12:41:01.462Z,9.93
2023-04-09T12:41:38.303Z,9.70
2023-04-09T12:43:28.736Z,9.45
2023-04-09T12:44:07.380Z,9.65
2023-04-09T12:45:55.985Z,9.82
2023-04-09T12:46:35.101Z,10.10
2023-04-09T12:48:23.243Z,9.75
2023-04-09T12:49:02.821Z,10.07
2023-04-09T12:50:50.547Z,9.27
2023-04-09T12:51:30.784Z,9.95
2023-04-09T12:53:17.706Z,9.40
2023-04-09T12:53:58.785Z,8.32
2023-04-09T12:55:44.887Z,9.43
2023-04-09T12:56:29.729Z,7.90
2023-04-09T12:58:11.948Z,8.90
2023-04-09T12:58:57.624Z,8.38
2023-04-09T13:00:39.194Z,9.57
2023-04-09T13:01:25.421Z,8.63
2023-04-09T13:03:06.680Z,9.77
2023-04-09T13:03:53.880Z,8.77
2023-04-09T13:05:35.545Z,9.13
2023-04-09T13:06:22.921Z,8.35
2023-04-09T13:08:03.427Z,8.80
2023-04-09T13:08:51.946Z,8.48
2023-04-09T13:10:31.516Z,9.05
2023-04-09T13:11:19.637Z,9.05
2023-04-09T13:12:58.650Z,8.88
2023-04-09T13:13:47.335Z,7.57
2023-04-09T13:15:25.899Z,9.27
2023-04-09T13:16:14.951Z,9.48
2023-04-09T13:17:53.099Z,9.45
2023-04-09T13:18:42.634Z,10.02
2023-04-09T13:20:22.359Z,8.98
2023-04-09T13:21:10.606Z,9.43
2023-04-09T13:22:53.176Z,8.88
2023-04-09T13:23:38.296Z,9.57
2023-04-09T13:25:20.477Z,8.82
2023-04-09T13:26:06.667Z,8.77
2023-04-09T13:27:49.615Z,9.20
2023-04-09T13:28:34.333Z,9.07
2023-04-09T13:30:16.673Z,8.60
2023-04-09T13:31:02.726Z,8.25
2023-04-09T13:32:44.915Z,9.50
2023-04-09T13:33:31.508Z,7.75
2023-04-09T13:35:12.238Z,9.90
2023-04-09T13:35:59.192Z,8.35
2023-04-09T13:37:41.010Z,8.95
2023-04-09T13:38:26.911Z,9.32
2023-04-09T13:40:09.668Z,8.73
2023-04-09T13:40:54.724Z,8.13
2023-04-09T13:42:37.583Z,8.75
2023-04-09T13:43:27.904Z,9.25
2023-04-09T13:45:05.435Z,8.82
2023-04-09T13:45:55.861Z,9.25
2023-04-09T13:47:32.589Z,8.63
2023-04-09T13:48:24.339Z,9.80
2023-04-09T13:50:00.817Z,7.80
2023-04-09T13:50:52.170Z,10.20
2023-04-09T13:52:29.680Z,8.80
2023-04-09T13:53:21.982Z,10.23
2023-04-09T13:54:57.268Z,8.43
2023-04-09T13:55:49.663Z,10.43
2023-04-09T13:57:24.373Z,8.40
2023-04-09T13:58:17.510Z,10.00
2023-04-09T13:59:51.628Z,7.20
2023-04-09T14:00:45.482Z,11.00
2023-04-09T14:02:19.378Z,7.93
2023-04-09T14:03:14.333Z,9.65
2023-04-09T14:04:46.719Z,7.75
2023-04-09T14:05:42.234Z,10.43
2023-04-09T14:07:13.863Z,7.60
2023-04-09T14:08:10.095Z,10.68
2023-04-09T14:09:41.077Z,8.65
2023-04-09T14:10:37.800Z,10.30
2023-04-09T14:12:08.175Z,8.15
2023-04-09T14:13:07.309Z,10.07
2023-04-09T14:14:35.375Z,8.32
2023-04-09T14:15:35.098Z,9.85
2023-04-09T14:17:02.515Z,7.70
2023-04-09T14:18:03.170Z,9.32
2023-04-09T14:19:29.739Z,7.95
2023-04-09T14:20:30.904Z,9.15
2023-04-09T14:21:56.920Z,8.45
2023-04-09T14:22:58.561Z,9.43
2023-04-09T14:24:24.088Z,7.82
2023-04-09T14:25:26.378Z,9.50
2023-04-09T14:26:53.475Z,8.00
2023-04-09T14:27:53.983Z,9.02
2023-04-09T14:29:22.130Z,7.82
2023-04-09T14:30:22.321Z,9.48
2023-04-09T14:31:49.468Z,8.50
2023-04-09T14:32:49.940Z,9.60
2023-04-09T14:34:16.690Z,7.80
2023-04-09T14:35:17.583Z,8.10
2023-04-09T14:36:43.894Z,7.78
2023-04-09T14:37:46.171Z,9.10
2023-04-09T14:39:11.336Z,7.75
2023-04-09T14:40:14.247Z,9.40
2023-04-09T14:41:38.657Z,7.70
2023-04-09T14:42:42.492Z,8.90
2023-04-09T14:44:05.977Z,7.28
2023-04-09T14:45:10.772Z,8.63
2023-04-09T14:46:33.317Z,7.07
2023-04-09T14:47:38.596Z,9.75
2023-04-09T14:49:01.000Z,6.95
2023-04-09T14:50:06.655Z,10.30
2023-04-09T14:51:30.515Z,7.10
2023-04-09T14:52:34.322Z,9.50
2023-04-09T14:53:58.022Z,7.00
2023-04-09T14:55:01.941Z,6.28
2023-04-09T14:56:25.345Z,6.45
2023-04-09T14:57:29.717Z,8.75
2023-04-09T14:58:52.765Z,6.43
2023-04-09T14:59:57.421Z,8.52
2023-04-09T15:02:25.615Z,8.52
2023-04-09T15:03:47.880Z,6.40
2023-04-09T15:04:53.475Z,7.45
2023-04-09T15:06:15.676Z,6.75
2023-04-09T15:07:23.208Z,6.40
2023-04-09T15:08:42.759Z,7.00
2023-04-09T15:09:52.271Z,6.78
2023-04-09T15:11:15.493Z,7.05
2023-04-09T15:12:19.975Z,7.10
2023-04-09T15:13:42.602Z,6.47
2023-04-09T15:14:47.603Z,6.85
2023-04-09T15:16:09.964Z,7.30
2023-04-09T15:17:15.541Z,7.88
2023-04-09T15:18:42.324Z,7.40
2023-04-09T15:19:43.187Z,7.30
2023-04-09T15:21:09.745Z,6.90
2023-04-09T15:22:11.098Z,6.22
2023-04-09T15:23:36.909Z,6.35
2023-04-09T15:24:38.830Z,7.85
2023-04-09T15:26:04.086Z,7.05
2023-04-09T15:27:06.862Z,7.93
2023-04-09T15:28:31.528Z,6.80
2023-04-09T15:29:34.499Z,8.68
2023-04-09T15:30:58.649Z,6.90
2023-04-09T15:32:02.320Z,7.72
2023-04-09T15:33:27.915Z,7.30
2023-04-09T15:34:30.325Z,6.90
2023-04-09T15:35:55.154Z,7.40
2023-04-09T15:36:57.950Z,8.80
2023-04-09T15:38:25.128Z,7.93
2023-04-09T15:39:28.388Z,8.15
2023-04-09T15:40:53.448Z,7.80
2023-04-09T15:41:57.650Z,8.15
2023-04-09T15:43:20.698Z,7.90
2023-04-09T15:44:25.868Z,8.77
2023-04-09T15:45:48.511Z,7.70
2023-04-09T15:46:53.827Z,8.27
2023-04-09T15:48:15.831Z,8.25
2023-04-09T15:49:21.441Z,7.68
2023-04-09T15:50:42.942Z,7.95
2023-04-09T15:51:49.169Z,7.75
2023-04-09T15:53:11.243Z,7.55
2023-04-09T15:54:16.932Z,7.55
2023-04-09T15:55:38.334Z,7.18
2023-04-09T15:56:44.618Z,6.70
2023-04-09T15:58:05.832Z,7.10
2023-04-09T15:59:12.304Z,6.43
2023-04-09T16:00:33.280Z,8.27
2023-04-09T16:01:40.574Z,6.05
2023-04-09T16:03:00.508Z,7.80
2023-04-09T16:04:09.395Z,5.88
2023-04-09T16:05:27.589Z,7.38
2023-04-09T16:06:39.300Z,8.35
2023-04-09T16:07:55.973Z,8.05
2023-04-09T16:09:07.410Z,9.20
2023-04-09T16:10:24.788Z,6.85
2023-04-09T16:11:36.344Z,11.30
2023-04-09T16:12:52.117Z,7.10
2023-04-09T16:14:04.262Z,8.43
2023-04-09T16:15:19.248Z,7.70
2023-04-09T16:16:32.109Z,8.30
2023-04-09T16:17:46.503Z,6.07